createdAt,value
2018-04-25T00:00:03.927Z,4.87
2018-04-25T00:02:33.027Z,7.50
2018-04-25T00:05:01.808Z,5.90
2018-04-25T00:07:31.427Z,5.60
2018-04-25T00:09:59.730Z,5.80
2018-04-25T00:12:28.687Z,7.20
2018-04-25T00:14:58.289Z,5.27
2018-04-25T00:17:27.247Z,6.00
2018-04-25T00:19:56.010Z,7.43
2018-04-25T00:22:25.247Z,5.27
2018-04-25T00:24:53.988Z,5.60
2018-04-25T00:27:24.007Z,7.57
2018-04-25T00:29:54.074Z,6.70
2018-04-25T00:32:23.347Z,8.03
2018-04-25T00:34:51.707Z,7.57
2018-04-25T00:37:20.748Z,5.77
2018-04-25T00:39:50.488Z,5.80
2018-04-25T00:42:19.246Z,5.10
2018-04-25T00:44:48.528Z,8.20
2018-04-25T00:47:17.487Z,7.20
2018-04-25T00:49:46.467Z,6.17
2018-04-25T00:52:17.008Z,6.53
2018-04-25T00:54:45.787Z,5.30
2018-04-25T00:57:14.447Z,5.70
2018-04-25T00:59:43.727Z,8.63
2018-04-25T01:02:12.728Z,5.40
2018-04-25T01:04:41.727Z,9.03
2018-04-25T01:07:10.707Z,5.20
2018-04-25T01:09:39.427Z,6.00
2018-04-25T01:12:08.166Z,5.13
2018-04-25T01:14:37.167Z,7.00
2018-04-25T01:17:05.649Z,8.37
2018-04-25T01:19:34.412Z,8.20
2018-04-25T01:22:03.567Z,4.67
2018-04-25T01:24:33.647Z,4.60
2018-04-25T01:27:05.168Z,7.63
2018-04-25T01:29:34.207Z,5.80
2018-04-25T01:32:05.486Z,8.23
2018-04-25T01:34:52.446Z,5.80
2018-04-25T01:37:29.707Z,9.50
2018-04-25T01:40:01.850Z,7.50
2018-04-25T01:46:08.054Z,6.23
2018-04-25T01:51:44.626Z,7.30
2018-04-25T01:54:25.430Z,9.53
2018-04-25T01:57:05.846Z,9.13
2018-04-25T01:59:46.446Z,8.50
2018-04-25T02:02:14.447Z,5.77
2018-04-25T02:04:43.406Z,5.77
2018-04-25T02:07:12.147Z,6.10
2018-04-25T02:09:40.686Z,7.40
2018-04-25T02:12:09.886Z,9.27
2018-04-25T02:14:39.106Z,5.13
2018-04-25T02:17:07.626Z,5.97
2018-04-25T02:19:36.845Z,8.10
2018-04-25T02:22:05.326Z,6.40
2018-04-25T02:24:35.085Z,5.53
2018-04-25T02:27:04.325Z,7.33
2018-04-25T02:29:33.606Z,8.27
2018-04-25T02:32:03.106Z,7.07
2018-04-25T02:34:32.346Z,7.50
2018-04-25T02:37:01.607Z,5.77
2018-04-25T02:39:30.846Z,6.17
2018-04-25T02:42:00.109Z,6.97
2018-04-25T02:44:28.906Z,6.50
2018-04-25T02:46:58.067Z,8.10
2018-04-25T02:49:27.327Z,6.77
2018-04-25T02:51:56.306Z,7.50
2018-04-25T02:54:25.589Z,5.80
2018-04-25T02:56:54.187Z,5.97
2018-04-25T02:59:23.808Z,7.87
2018-04-25T03:01:52.911Z,5.13
2018-04-25T03:04:22.047Z,5.70
2018-04-25T03:06:50.867Z,4.50
2018-04-25T03:09:19.766Z,7.27
2018-04-25T03:11:48.531Z,7.17
2018-04-25T03:14:18.287Z,4.83
2018-04-25T03:16:47.101Z,6.00
2018-04-25T03:19:16.009Z,9.17
2018-04-25T03:21:45.268Z,4.40
2018-04-25T03:24:14.252Z,5.93
2018-04-25T03:26:42.489Z,5.00
2018-04-25T03:29:12.228Z,6.90
2018-04-25T03:31:40.848Z,6.07
2018-04-25T03:34:10.229Z,4.57
2018-04-25T03:36:39.472Z,6.33
2018-04-25T03:39:09.108Z,4.30
2018-04-25T03:41:37.710Z,5.60
2018-04-25T03:44:06.971Z,9.73
2018-04-25T03:46:35.969Z,7.63
2018-04-25T03:49:05.209Z,7.33
2018-04-25T03:51:34.189Z,6.10
2018-04-25T03:54:02.908Z,5.73
2018-04-25T03:56:31.728Z,4.73
2018-04-25T03:59:00.693Z,7.40
2018-04-25T04:01:29.669Z,5.37
2018-04-25T04:03:57.868Z,6.30
2018-04-25T04:06:26.875Z,6.53
2018-04-25T04:08:55.448Z,5.67
2018-04-25T04:11:23.848Z,4.97
2018-04-25T04:13:53.068Z,5.87
2018-04-25T04:16:21.848Z,4.40
2018-04-25T04:18:51.508Z,5.60
2018-04-25T04:21:21.110Z,5.27
2018-04-25T04:23:50.708Z,13.10
2018-04-25T04:26:19.838Z,7.13
2018-04-25T04:28:48.589Z,7.37
2018-04-25T04:31:17.829Z,5.63
2018-04-25T04:33:46.592Z,7.20
2018-04-25T04:36:15.488Z,6.47
2018-04-25T04:38:45.068Z,4.93
2018-04-25T04:41:14.569Z,5.00
2018-04-25T04:43:43.569Z,5.50
2018-04-25T04:46:12.237Z,6.90
2018-04-25T04:48:41.308Z,6.63
2018-04-25T04:51:10.169Z,6.27
2018-04-25T04:53:39.814Z,4.60
2018-04-25T04:56:09.308Z,5.00
2018-04-25T04:58:39.069Z,5.50
2018-04-25T05:01:08.077Z,5.67
2018-04-25T05:03:38.589Z,5.77
2018-04-25T05:06:07.589Z,6.17
2018-04-25T05:08:36.800Z,4.57
2018-04-25T05:11:05.849Z,8.63
2018-04-25T05:13:36.349Z,6.17
2018-04-25T05:16:05.149Z,5.07
2018-04-25T05:18:33.829Z,7.53
2018-04-25T05:21:02.552Z,4.43
2018-04-25T05:23:32.090Z,8.17
2018-04-25T05:26:01.569Z,7.93
2018-04-25T05:28:30.309Z,6.67
2018-04-25T05:30:59.589Z,5.03
2018-04-25T05:33:29.069Z,7.63
2018-04-25T05:35:57.750Z,5.60
2018-04-25T05:38:29.629Z,8.57
2018-04-25T05:40:59.871Z,7.33
2018-04-25T05:43:29.388Z,7.23
2018-04-25T05:45:58.141Z,7.70
2018-04-25T05:48:27.888Z,5.13
2018-04-25T05:50:57.149Z,11.33
2018-04-25T05:53:26.429Z,7.80
2018-04-25T05:55:55.133Z,6.20
2018-04-25T05:58:25.668Z,8.53
2018-04-25T06:00:54.668Z,4.80
2018-04-25T06:03:24.469Z,6.10
2018-04-25T06:05:53.529Z,7.57
2018-04-25T06:08:22.908Z,5.07
2018-04-25T06:10:51.590Z,6.00
2018-04-25T06:13:21.150Z,5.97
2018-04-25T06:15:49.628Z,4.90
2018-04-25T06:18:18.589Z,7.20
2018-04-25T06:20:47.868Z,7.03
2018-04-25T06:23:16.631Z,6.70
2018-04-25T06:25:46.405Z,7.77
2018-04-25T06:28:15.413Z,10.80
2018-04-25T06:30:44.554Z,6.07
2018-04-25T06:33:13.349Z,8.90
2018-04-25T06:35:42.609Z,6.03
2018-04-25T06:38:11.589Z,5.80
2018-04-25T06:40:40.329Z,6.60
2018-04-25T06:43:09.329Z,4.70
2018-04-25T06:45:38.517Z,5.77
2018-04-25T06:48:07.309Z,7.73
2018-04-25T06:50:36.417Z,5.20
2018-04-25T06:53:05.308Z,7.10
2018-04-25T06:55:35.568Z,5.80
2018-04-25T06:58:04.048Z,6.40
2018-04-25T07:00:32.789Z,7.27
2018-04-25T07:03:02.128Z,5.73
2018-04-25T07:05:31.578Z,6.73
2018-04-25T07:08:00.088Z,7.07
2018-04-25T07:10:29.543Z,9.27
2018-04-25T07:12:58.532Z,6.27
2018-04-25T07:15:27.517Z,6.30
2018-04-25T07:17:57.018Z,5.90
2018-04-25T07:20:25.805Z,6.37
2018-04-25T07:22:55.033Z,5.90
2018-04-25T07:25:23.753Z,6.10
2018-04-25T07:27:52.624Z,5.63
2018-04-25T07:30:21.505Z,7.37
2018-04-25T07:32:50.228Z,9.20
2018-04-25T07:35:19.450Z,13.50
2018-04-25T07:37:48.210Z,9.73
2018-04-25T07:40:17.134Z,5.73
2018-04-25T07:42:45.934Z,8.97
2018-04-25T07:45:14.671Z,8.13
2018-04-25T07:47:43.146Z,8.93
2018-04-25T07:50:11.694Z,7.50
2018-04-25T07:52:40.633Z,6.07
2018-04-25T07:55:09.356Z,8.20
2018-04-25T07:57:38.649Z,11.53
2018-04-25T08:00:07.351Z,6.23
2018-04-25T08:02:36.334Z,12.03
2018-04-25T08:05:04.915Z,8.37
2018-04-25T08:07:34.323Z,9.70
2018-04-25T08:10:02.849Z,8.20
2018-04-25T08:12:43.324Z,11.30
2018-04-25T08:15:23.591Z,6.23
2018-04-25T08:18:03.852Z,7.30
2018-04-25T08:20:44.874Z,9.23
2018-04-25T08:23:13.354Z,13.70
2018-04-25T08:25:42.115Z,12.17
2018-04-25T08:28:11.055Z,8.87
2018-04-25T08:30:40.065Z,9.37
2018-04-25T08:33:08.294Z,7.47
2018-04-25T08:35:36.519Z,7.87
2018-04-25T08:38:04.994Z,8.37
2018-04-25T08:40:34.024Z,6.80
2018-04-25T08:43:02.761Z,6.77
2018-04-25T08:45:32.741Z,6.50
2018-04-25T08:48:02.002Z,7.00
2018-04-25T08:50:30.965Z,5.87
2018-04-25T08:52:59.723Z,7.43
2018-04-25T08:55:29.002Z,12.27
2018-04-25T08:57:58.225Z,10.20
2018-04-25T09:00:27.223Z,8.90
2018-04-25T09:02:55.954Z,12.67
2018-04-25T09:05:25.207Z,11.40
2018-04-25T09:07:54.208Z,9.67
2018-04-25T09:10:23.448Z,8.80
2018-04-25T09:12:52.447Z,12.30
2018-04-25T09:15:21.451Z,12.60
2018-04-25T09:17:50.439Z,9.50
2018-04-25T09:20:19.532Z,21.80
2018-04-25T09:22:48.011Z,9.97
2018-04-25T09:25:16.815Z,9.00
2018-04-25T09:27:45.626Z,9.20
2018-04-25T09:30:14.361Z,10.40
2018-04-25T09:32:43.361Z,9.80
2018-04-25T09:35:11.678Z,7.60
2018-04-25T09:37:40.602Z,10.83
2018-04-25T09:40:09.602Z,13.60
2018-04-25T09:42:38.062Z,11.57
2018-04-25T09:45:06.522Z,11.50
2018-04-25T09:47:36.038Z,8.17
2018-04-25T09:50:04.522Z,8.57
2018-04-25T09:52:33.763Z,8.10
2018-04-25T09:55:01.839Z,11.23
2018-04-25T09:57:31.019Z,11.07
2018-04-25T10:00:02.206Z,9.40
2018-04-25T10:02:34.475Z,9.17
2018-04-25T10:05:05.394Z,11.90
2018-04-25T10:07:34.490Z,15.60
2018-04-25T10:10:04.149Z,8.70
2018-04-25T10:12:32.889Z,12.07
2018-04-25T10:15:01.472Z,11.07
2018-04-25T10:17:30.372Z,10.40
2018-04-25T10:19:59.594Z,10.40
2018-04-25T10:22:28.601Z,11.17
2018-04-25T10:24:57.420Z,9.33
2018-04-25T10:27:26.120Z,8.80
2018-04-25T10:29:55.319Z,9.33
2018-04-25T10:32:23.801Z,8.90
2018-04-25T10:34:53.060Z,15.57
2018-04-25T10:37:22.300Z,11.40
2018-04-25T10:39:51.110Z,10.73
2018-04-25T10:42:20.280Z,10.30
2018-04-25T10:44:49.032Z,12.60
2018-04-25T10:47:17.512Z,13.90
2018-04-25T10:49:47.013Z,11.97
2018-04-25T10:52:15.994Z,9.67
2018-04-25T10:54:44.992Z,13.30
2018-04-25T10:57:14.253Z,11.30
2018-04-25T10:59:43.773Z,17.07
2018-04-25T11:02:12.993Z,14.07
2018-04-25T11:04:41.992Z,14.20
2018-04-25T11:07:10.753Z,11.43
2018-04-25T11:09:40.433Z,11.80
2018-04-25T11:12:09.636Z,11.50
2018-04-25T11:14:38.472Z,13.13
2018-04-25T11:17:07.213Z,11.73
2018-04-25T11:19:35.972Z,15.37
2018-04-25T11:22:05.972Z,14.40
2018-04-25T11:24:34.732Z,10.57
2018-04-25T11:27:03.972Z,10.87
2018-04-25T11:29:32.952Z,9.80
2018-04-25T11:32:01.952Z,13.93
2018-04-25T11:34:30.692Z,11.80
2018-04-25T11:36:59.674Z,14.53
2018-04-25T11:39:29.171Z,10.90
2018-04-25T11:41:58.432Z,10.30
2018-04-25T11:44:27.951Z,10.07
2018-04-25T11:46:56.671Z,11.63
2018-04-25T11:49:25.690Z,10.23
2018-04-25T11:51:55.511Z,13.27
2018-04-25T11:54:24.139Z,10.00
2018-04-25T11:56:53.191Z,10.00
2018-04-25T11:59:23.431Z,9.13
2018-04-25T12:01:52.931Z,11.23
2018-04-25T12:04:21.931Z,9.00
2018-04-25T12:06:51.431Z,13.30
2018-04-25T12:09:20.692Z,11.17
2018-04-25T12:11:49.931Z,14.10
2018-04-25T12:14:18.910Z,9.23
2018-04-25T12:16:47.411Z,10.60
2018-04-25T12:19:16.331Z,9.70
2018-04-25T12:21:46.172Z,8.07
2018-04-25T12:24:15.429Z,8.20
2018-04-25T12:26:44.411Z,11.20
2018-04-25T12:29:13.676Z,10.00
2018-04-25T12:31:43.411Z,14.90
2018-04-25T12:34:12.412Z,12.00
2018-04-25T12:36:41.100Z,9.83
2018-04-25T12:39:10.672Z,13.50
2018-04-25T12:41:40.694Z,9.57
2018-04-25T12:44:09.408Z,9.70
2018-04-25T12:46:38.392Z,9.77
2018-04-25T12:49:07.232Z,10.10
2018-04-25T12:51:36.391Z,9.03
2018-04-25T12:54:04.943Z,12.20
2018-04-25T12:56:33.612Z,10.17
2018-04-25T12:59:03.452Z,13.07
2018-04-25T13:01:33.169Z,10.30
2018-04-25T13:04:02.111Z,10.33
2018-04-25T13:06:30.711Z,11.23
2018-04-25T13:08:59.859Z,11.40
2018-04-25T13:11:29.630Z,11.57
2018-04-25T13:13:58.871Z,11.17
2018-04-25T13:16:28.595Z,10.50
2018-04-25T13:18:57.091Z,10.60
2018-04-25T13:21:25.345Z,13.23
2018-04-25T13:23:54.311Z,14.13
2018-04-25T13:26:22.971Z,15.27
2018-04-25T13:28:51.572Z,12.57
2018-04-25T13:31:20.870Z,8.87
2018-04-25T13:33:50.292Z,10.47
2018-04-25T13:36:19.013Z,10.10
2018-04-25T13:38:48.031Z,13.20
2018-04-25T13:41:17.211Z,10.83
2018-04-25T13:43:45.756Z,14.03
2018-04-25T13:46:14.752Z,13.37
2018-04-25T13:48:43.466Z,9.60
2018-04-25T13:51:12.470Z,9.63
2018-04-25T13:53:41.478Z,9.57
2018-04-25T13:56:13.034Z,11.80
2018-04-25T13:58:41.770Z,15.67
2018-04-25T14:01:10.749Z,12.70
2018-04-25T14:03:39.830Z,10.57
2018-04-25T14:06:08.997Z,12.10
2018-04-25T14:08:38.193Z,13.07
2018-04-25T14:11:07.129Z,15.90
2018-04-25T14:13:35.724Z,16.00
2018-04-25T14:16:04.484Z,10.77
2018-04-25T14:18:33.563Z,11.10
2018-04-25T14:21:02.452Z,11.97
2018-04-25T14:23:31.944Z,11.50
2018-04-25T14:26:00.946Z,11.00
2018-04-25T14:28:30.228Z,13.23
2018-04-25T14:30:59.444Z,13.83
2018-04-25T14:33:28.215Z,18.10
2018-04-25T14:35:56.904Z,8.93
2018-04-25T14:38:26.263Z,12.80
2018-04-25T14:40:55.027Z,12.47
2018-04-25T14:43:24.186Z,12.80
2018-04-25T14:45:53.365Z,12.93
2018-04-25T14:48:22.709Z,11.43
2018-04-25T14:50:51.903Z,12.63
2018-04-25T14:53:21.164Z,16.77
2018-04-25T14:55:51.423Z,11.77
2018-04-25T14:58:20.163Z,14.53
2018-04-25T15:00:48.483Z,16.40
2018-04-25T15:03:17.465Z,10.60
2018-04-25T15:05:46.925Z,11.60
2018-04-25T15:08:16.005Z,16.60
2018-04-25T15:10:45.123Z,14.20
2018-04-25T15:13:13.383Z,13.17
2018-04-25T15:15:41.844Z,15.20
2018-04-25T15:18:11.603Z,16.73
2018-04-25T15:20:40.583Z,14.10
2018-04-25T15:23:10.082Z,13.00
2018-04-25T15:25:38.564Z,11.50
2018-04-25T15:28:08.023Z,13.43
2018-04-25T15:30:36.822Z,13.90
2018-04-25T15:33:06.062Z,13.80
2018-04-25T15:35:34.403Z,14.80
2018-04-25T15:38:03.287Z,15.77
2018-04-25T15:40:32.187Z,19.87
2018-04-25T15:43:02.028Z,15.03
2018-04-25T15:45:30.267Z,13.10
2018-04-25T15:47:58.882Z,15.23
2018-04-25T15:50:27.483Z,15.70
2018-04-25T15:52:56.730Z,16.20
2018-04-25T15:55:25.452Z,14.87
2018-04-25T15:57:53.951Z,15.63
2018-04-25T16:00:22.933Z,15.27
2018-04-25T16:02:51.555Z,15.77
2018-04-25T16:05:21.191Z,15.73
2018-04-25T16:07:50.192Z,17.80
2018-04-25T16:10:18.910Z,12.37
2018-04-25T16:12:48.195Z,15.80
2018-04-25T16:15:17.785Z,14.73
2018-04-25T16:17:46.671Z,16.30
2018-04-25T16:20:15.681Z,19.43
2018-04-25T16:22:44.642Z,17.13
2018-04-25T16:25:13.631Z,13.30
2018-04-25T16:27:42.632Z,18.70
2018-04-25T16:30:11.151Z,16.00
2018-04-25T16:32:40.107Z,13.40
2018-04-25T16:35:09.047Z,16.03
2018-04-25T16:37:38.104Z,15.70
2018-04-25T16:40:06.604Z,14.07
2018-04-25T16:42:35.563Z,15.40
2018-04-25T16:45:04.323Z,18.63
2018-04-25T16:47:33.822Z,13.60
2018-04-25T16:50:02.806Z,12.50
2018-04-25T16:52:31.540Z,12.20
2018-04-25T16:55:00.299Z,16.23
2018-04-25T16:57:29.780Z,14.10
2018-04-25T16:59:59.081Z,12.03
2018-04-25T17:02:28.779Z,13.00
2018-04-25T17:04:58.311Z,15.33
2018-04-25T17:07:27.068Z,15.23
2018-04-25T17:09:55.808Z,14.70
2018-04-25T17:12:25.039Z,15.20
2018-04-25T17:14:53.759Z,13.30
2018-04-25T17:17:24.634Z,15.10
2018-04-25T17:19:53.796Z,23.83
2018-04-25T17:22:22.776Z,16.00
2018-04-25T17:24:51.516Z,14.70
2018-04-25T17:27:20.236Z,14.10
2018-04-25T17:29:49.516Z,23.10
2018-04-25T17:32:20.037Z,14.00
2018-04-25T17:34:48.356Z,15.30
2018-04-25T17:37:16.996Z,15.60
2018-04-25T17:39:45.806Z,12.03
2018-04-25T17:42:14.986Z,10.23
2018-04-25T17:44:43.584Z,15.37
2018-04-25T17:47:12.985Z,20.27
2018-04-25T17:49:42.925Z,15.00
2018-04-25T17:52:12.786Z,17.33
2018-04-25T17:54:41.746Z,17.07
2018-04-25T17:57:10.266Z,15.30
2018-04-25T17:59:39.589Z,13.47
2018-04-25T18:02:07.963Z,16.33
2018-04-25T18:04:36.974Z,13.50
2018-04-25T18:07:05.455Z,17.93
2018-04-25T18:09:34.657Z,13.93
2018-04-25T18:12:03.438Z,15.53
2018-04-25T18:14:33.424Z,13.83
2018-04-25T18:17:02.560Z,15.77
2018-04-25T18:19:31.383Z,21.03
2018-04-25T18:22:00.035Z,16.00
2018-04-25T18:24:29.669Z,17.20
2018-04-25T18:26:58.676Z,13.40
2018-04-25T18:29:27.276Z,13.97
2018-04-25T18:31:55.594Z,12.93
2018-04-25T18:34:24.916Z,15.70
2018-04-25T18:36:53.863Z,13.90
2018-04-25T18:39:23.624Z,14.93
2018-04-25T18:41:51.960Z,17.57
2018-04-25T18:44:20.580Z,11.40
2018-04-25T18:46:49.550Z,18.83
2018-04-25T18:49:18.590Z,13.67
2018-04-25T18:51:48.069Z,14.70
2018-04-25T18:54:17.349Z,14.67
2018-04-25T18:56:46.070Z,14.30
2018-04-25T18:59:15.210Z,12.50
2018-04-25T19:01:44.350Z,20.43
2018-04-25T19:04:13.230Z,18.73
2018-04-25T19:06:42.309Z,14.17
2018-04-25T19:09:11.030Z,14.17
2018-04-25T19:11:40.270Z,13.90
2018-04-25T19:14:09.291Z,15.93
2018-04-25T19:16:38.269Z,12.63
2018-04-25T19:19:08.029Z,16.80
2018-04-25T19:21:36.769Z,16.57
2018-04-25T19:24:05.748Z,13.43
2018-04-25T19:26:35.188Z,12.57
2018-04-25T19:29:04.516Z,15.37
2018-04-25T19:31:33.510Z,15.63
2018-04-25T19:34:02.748Z,13.10
2018-04-25T19:36:31.749Z,13.90
2018-04-25T19:39:00.568Z,13.00
2018-04-25T19:41:30.010Z,13.73
2018-04-25T19:43:59.247Z,22.50
2018-04-25T19:46:28.248Z,13.10
2018-04-25T19:48:57.929Z,13.23
2018-04-25T19:51:26.469Z,13.80
2018-04-25T19:53:55.668Z,14.37
2018-04-25T19:56:23.951Z,13.27
2018-04-25T19:58:53.189Z,12.50
2018-04-25T20:01:21.929Z,15.83
2018-04-25T20:03:51.949Z,15.60
2018-04-25T20:06:20.689Z,14.00
2018-04-25T20:08:50.193Z,14.50
2018-04-25T20:11:19.428Z,14.93
2018-04-25T20:13:48.902Z,16.53
2018-04-25T20:16:17.877Z,11.90
2018-04-25T20:18:46.873Z,18.60
2018-04-25T20:21:15.948Z,16.93
2018-04-25T20:23:45.449Z,15.07
2018-04-25T20:26:14.690Z,12.50
2018-04-25T20:28:43.710Z,14.83
2018-04-25T20:31:13.029Z,15.90
2018-04-25T20:33:42.188Z,14.40
2018-04-25T20:36:11.635Z,23.13
2018-04-25T20:38:40.171Z,14.70
2018-04-25T20:41:09.148Z,15.20
2018-04-25T20:43:38.410Z,12.17
2018-04-25T20:46:07.930Z,13.70
2018-04-25T20:48:36.909Z,13.37
2018-04-25T20:51:05.950Z,14.60
2018-04-25T20:53:34.569Z,12.90
2018-04-25T20:56:03.629Z,15.77
2018-04-25T20:58:33.391Z,11.50
2018-04-25T21:01:02.390Z,11.97
2018-04-25T21:03:31.631Z,12.23
2018-04-25T21:06:00.389Z,13.20
2018-04-25T21:08:29.873Z,16.50
2018-04-25T21:10:59.377Z,12.73
2018-04-25T21:13:28.729Z,13.43
2018-04-25T21:15:58.129Z,12.17
2018-04-25T21:18:28.135Z,11.80
2018-04-25T21:20:57.148Z,11.23
2018-04-25T21:23:26.648Z,10.70
2018-04-25T21:25:55.908Z,7.70
2018-04-25T21:28:24.888Z,8.00
2018-04-25T21:30:53.748Z,8.10
2018-04-25T21:33:22.748Z,7.00
2018-04-25T21:35:51.701Z,10.03
2018-04-25T21:38:20.832Z,7.07
2018-04-25T21:40:49.868Z,11.10
2018-04-25T21:43:18.868Z,7.33
2018-04-25T21:45:49.128Z,8.60
2018-04-25T21:48:18.387Z,9.73
2018-04-25T21:50:47.488Z,10.53
2018-04-25T21:53:16.328Z,8.37
2018-04-25T21:55:45.348Z,7.10
2018-04-25T21:58:14.354Z,11.70
2018-04-25T22:00:43.072Z,6.17
2018-04-25T22:03:12.070Z,8.13
2018-04-25T22:05:41.109Z,6.33
2018-04-25T22:08:10.331Z,5.20
2018-04-25T22:10:39.068Z,5.57
2018-04-25T22:13:08.049Z,6.97
2018-04-25T22:15:36.689Z,7.90
2018-04-25T22:18:05.549Z,5.03
2018-04-25T22:20:34.510Z,7.50
2018-04-25T22:23:03.329Z,8.67
2018-04-25T22:25:32.649Z,4.77
2018-04-25T22:28:01.269Z,12.43
2018-04-25T22:30:30.488Z,7.10
2018-04-25T22:32:59.992Z,5.43
2018-04-25T22:35:28.989Z,10.20
2018-04-25T22:37:58.209Z,4.30
2018-04-25T22:40:28.009Z,3.03
2018-04-25T22:42:56.668Z,4.30
2018-04-25T22:45:26.248Z,3.50
2018-04-25T22:47:54.970Z,2.43
2018-04-25T22:50:23.709Z,3.67
2018-04-25T22:52:52.816Z,2.67
2018-04-25T22:55:21.288Z,2.13
2018-04-25T22:57:50.472Z,2.40
2018-04-25T23:00:22.468Z,2.87
2018-04-25T23:02:51.528Z,1.70
2018-04-25T23:05:21.008Z,1.50
2018-04-25T23:07:50.435Z,3.63
2018-04-25T23:10:19.548Z,2.67
2018-04-25T23:12:48.228Z,1.70
2018-04-25T23:15:17.009Z,3.03
2018-04-25T23:17:46.248Z,1.70
2018-04-25T23:20:15.028Z,2.13
2018-04-25T23:22:44.228Z,2.07
2018-04-25T23:25:13.730Z,1.97
2018-04-25T23:27:42.969Z,3.40
2018-04-25T23:30:12.288Z,1.70
2018-04-25T23:32:41.708Z,2.17
2018-04-25T23:35:10.748Z,1.93
2018-04-25T23:37:39.655Z,2.23
2018-04-25T23:40:08.650Z,2.33
2018-04-25T23:42:38.212Z,3.07
2018-04-25T23:45:07.008Z,4.30
2018-04-25T23:47:35.668Z,2.70
2018-04-25T23:50:04.669Z,2.00
2018-04-25T23:52:33.915Z,1.90
2018-04-25T23:55:02.649Z,1.80
2018-04-25T23:57:30.970Z,2.27
